Time;durP1;ratioP1;P1;durP2;ratioP2;P2;SDS_P1;SDS_P2;PMS_P1;PMS_P2;Temp;Humidity;BMP_temperature;BMP_pressure;BME280_temperature;BME280_humidity;BME280_pressure;Samples;Min_cycle;Max_cycle;Signal;HPM_P1;HPM_P2
2024/04/18 00:00:37;;;;;;;4.18;0.70;;;;;;;10.74;100.00;98896.91;5461702;26;20013;-74
2024/04/18 00:03:03;;;;;;;1.90;0.80;;;;;;;10.91;100.00;98904.81;5485983;26;20393;-74
2024/04/18 00:05:29;;;;;;;1.35;0.65;;;;;;;10.64;100.00;98892.47;5485578;26;20002;-74
2024/04/18 00:07:54;;;;;;;1.13;0.65;;;;;;;10.84;100.00;98928.84;5485606;26;20419;-74
2024/04/18 00:10:19;;;;;;;1.15;0.80;;;;;;;11.13;100.00;98954.13;5485764;26;19998;-75
2024/04/18 00:12:45;;;;;;;0.75;0.70;;;;;;;11.26;100.00;98957.69;5485444;26;20070;-75
2024/04/18 00:15:10;;;;;;;3.40;0.90;;;;;;;11.41;100.00;98951.78;5452324;26;20452;-76
2024/04/18 00:17:37;;;;;;;1.60;0.63;;;;;;;11.56;100.00;98951.06;5485582;26;20022;-76
2024/04/18 00:20:03;;;;;;;1.63;0.65;;;;;;;11.42;100.00;98923.38;5463321;26;20075;-76
2024/04/18 00:22:29;;;;;;;3.08;0.90;;;;;;;11.57;100.00;98929.53;5451728;26;20011;-75
2024/04/18 00:24:54;;;;;;;0.77;0.70;;;;;;;11.63;100.00;98945.09;5467425;26;20022;-74
2024/04/18 00:27:20;;;;;;;3.05;0.90;;;;;;;11.62;100.00;98951.13;5453056;26;20032;-74
2024/04/18 00:29:46;;;;;;;1.70;0.65;;;;;;;11.64;100.00;98942.50;5485367;26;20010;-75
2024/04/18 00:32:14;;;;;;;4.28;1.02;;;;;;;11.61;100.00;98928.69;5485307;26;20013;-74
2024/04/18 00:34:39;;;;;;;3.25;0.80;;;;;;;11.61;100.00;98946.78;5484879;26;20425;-74
2024/04/18 00:37:05;;;;;;;1.77;0.85;;;;;;;11.54;100.00;98961.41;5484722;26;20012;-74
2024/04/18 00:39:31;;;;;;;5.03;0.85;;;;;;;11.57;100.00;98976.06;5485425;26;20459;-74
2024/04/18 00:41:56;;;;;;;5.43;0.95;;;;;;;11.26;100.00;98973.19;5484912;26;20041;-74
2024/04/18 00:44:22;;;;;;;2.70;0.90;;;;;;;11.26;100.00;98955.94;5485485;26;20207;-74
2024/04/18 00:46:50;;;;;;;3.33;1.08;;;;;;;11.31;100.00;98930.16;5484560;26;20020;-74
2024/04/18 00:49:16;;;;;;;3.78;1.05;;;;;;;11.10;100.00;98866.25;5485467;26;20003;-74
2024/04/18 00:51:43;;;;;;;1.48;1.25;;;;;;;11.43;100.00;98881.19;5487286;26;19998;-74
2024/04/18 00:54:10;;;;;;;3.47;1.00;;;;;;;11.62;100.00;98914.94;5456173;26;20078;-74
2024/04/18 00:56:36;;;;;;;1.48;1.00;;;;;;;11.63;100.00;98932.16;5488386;26;20012;-73
2024/04/18 00:59:02;;;;;;;1.10;0.77;;;;;;;11.56;100.00;98943.31;5488770;26;19994;-75
2024/04/18 01:01:29;;;;;;;2.47;0.80;;;;;;;11.58;100.00;98941.63;5488560;26;20327;-76
2024/04/18 01:03:58;;;;;;;1.58;0.80;;;;;;;11.58;100.00;98920.94;5489088;26;20026;-75
2024/04/18 01:06:24;;;;;;;1.57;0.83;;;;;;;11.72;100.00;98908.09;5487426;26;20042;-75
2024/04/18 01:08:50;;;;;;;0.95;0.70;;;;;;;12.02;100.00;98927.31;5488923;26;20516;-75
2024/04/18 01:11:17;;;;;;;2.63;0.88;;;;;;;12.19;100.00;98936.03;5487451;26;20333;-73
2024/04/18 01:13:42;;;;;;;3.47;0.90;;;;;;;12.12;100.00;98909.25;5488681;26;19998;-76
2024/04/18 01:16:08;;;;;;;1.92;0.98;;;;;;;12.28;100.00;98902.41;5488337;26;20013;-74
2024/04/18 01:18:35;;;;;;;2.17;0.93;;;;;;;12.26;100.00;98864.47;5488276;26;20002;-74
2024/04/18 01:21:01;;;;;;;2.33;0.80;;;;;;;12.25;100.00;98927.41;5454796;26;20013;-75
2024/04/18 01:23:28;;;;;;;2.10;0.80;;;;;;;12.09;100.00;98893.72;5455595;26;19998;-73
2024/04/18 01:25:54;;;;;;;2.30;0.93;;;;;;;12.25;100.00;98902.41;5487838;26;20429;-75
2024/04/18 01:28:20;;;;;;;1.73;0.60;;;;;;;12.32;100.00;98905.88;5485827;26;19994;-74
2024/04/18 01:30:45;;;;;;;2.08;0.90;;;;;;;12.35;100.00;98845.53;5448902;26;19995;-76
2024/04/18 01:33:11;;;;;;;1.52;0.63;;;;;;;12.26;100.00;98883.47;5448301;26;20009;-74
2024/04/18 01:35:36;;;;;;;2.00;1.00;;;;;;;11.98;100.00;98867.78;5448378;26;20014;-72
2024/04/18 01:38:02;;;;;;;2.25;0.88;;;;;;;12.34;100.00;98919.72;5448150;26;19994;-76
2024/04/18 01:40:28;;;;;;;1.55;0.90;;;;;;;12.18;100.00;98885.13;5448792;26;20010;-72
2024/04/18 01:42:53;;;;;;;1.67;0.73;;;;;;;12.42;100.00;98923.22;5448257;26;20071;-78
2024/04/18 01:45:19;;;;;;;2.22;0.93;;;;;;;12.40;100.00;98918.84;5448433;26;20420;-73
2024/04/18 01:47:45;;;;;;;3.60;1.15;;;;;;;12.54;100.00;98908.59;5448542;26;20003;-72
2024/04/18 01:50:10;;;;;;;1.95;1.08;;;;;;;12.46;100.00;98874.88;5448105;26;19995;-74
2024/04/18 01:52:37;;;;;;;3.65;1.27;;;;;;;12.64;100.00;98868.06;5447801;26;20013;-77
2024/04/18 01:55:03;;;;;;;2.17;1.00;;;;;;;12.64;100.00;98837.84;5448334;26;19999;-75
2024/04/18 01:57:28;;;;;;;2.60;1.40;;;;;;;12.62;100.00;98861.16;5448467;26;19999;-73
2024/04/18 01:59:54;;;;;;;2.75;1.00;;;;;;;12.53;100.00;98879.22;5448216;26;20066;-75
2024/04/18 02:02:20;;;;;;;2.85;1.10;;;;;;;12.32;100.00;98864.50;5475701;26;20030;-73
2024/04/18 02:04:45;;;;;;;1.40;1.00;;;;;;;12.59;100.00;98902.56;5487004;26;20008;-73
2024/04/18 02:07:12;;;;;;;1.67;1.00;;;;;;;12.52;100.00;98887.00;5487285;26;20418;-75
2024/04/18 02:09:38;;;;;;;1.17;0.93;;;;;;;12.64;100.00;98881.88;5487330;26;19998;-76
2024/04/18 02:12:03;;;;;;;1.85;1.00;;;;;;;12.79;100.00;98868.09;5487501;26;19995;-73
2024/04/18 02:14:29;;;;;;;3.35;1.25;;;;;;;12.80;100.00;98856.88;5488233;26;19998;-79
2024/04/18 02:16:54;;;;;;;2.25;1.00;;;;;;;12.87;100.00;98861.22;5487726;26;20029;-76
2024/04/18 02:19:20;;;;;;;2.80;1.00;;;;;;;12.93;100.00;98871.59;5487293;26;20340;-76
2024/04/18 02:21:47;;;;;;;0.90;0.80;;;;;;;12.75;100.00;98849.09;5486967;26;19994;-74
2024/04/18 02:24:12;;;;;;;1.25;0.80;;;;;;;12.99;100.00;98886.25;5487605;26;19998;-73
2024/04/18 02:26:38;;;;;;;0.82;0.60;;;;;;;12.97;100.00;98894.88;5487417;26;20077;-73
2024/04/18 02:29:03;;;;;;;0.55;0.55;;;;;;;12.61;100.00;98893.06;5487719;26;20004;-76
2024/04/18 02:31:29;;;;;;;0.82;0.70;;;;;;;12.52;100.00;98928.41;5487150;26;20009;-78
2024/04/18 02:33:54;;;;;;;3.15;0.88;;;;;;;12.16;100.00;98883.41;5487223;26;19994;-73
2024/04/18 02:36:20;;;;;;;1.45;0.77;;;;;;;12.39;100.00;98920.59;5486605;26;20009;-73
2024/04/18 02:38:46;;;;;;;0.90;0.80;;;;;;;12.67;100.00;98953.50;5487370;26;20009;-76
2024/04/18 02:41:11;;;;;;;1.25;0.63;;;;;;;12.60;100.00;98937.94;5487061;26;20445;-74
2024/04/18 02:43:37;;;;;;;0.70;0.65;;;;;;;12.54;100.00;98909.44;5486838;26;20034;-73
2024/04/18 02:46:03;;;;;;;2.15;1.00;;;;;;;12.54;100.00;98917.22;5486981;26;20067;-74
2024/04/18 02:48:28;;;;;;;2.38;0.73;;;;;;;12.24;100.00;98931.72;5487104;26;20352;-73
2024/04/18 02:50:54;;;;;;;1.88;0.70;;;;;;;12.08;100.00;98923.03;5486815;26;20031;-73
2024/04/18 02:53:19;;;;;;;2.28;1.10;;;;;;;11.70;100.00;98913.28;5486776;26;20005;-74
2024/04/18 02:55:45;;;;;;;2.05;1.02;;;;;;;11.50;100.00;98933.78;5483060;26;20005;-71
2024/04/18 02:58:11;;;;;;;1.55;1.20;;;;;;;11.42;100.00;98935.44;5487518;26;20329;-71
2024/04/18 03:00:36;;;;;;;2.28;0.90;;;;;;;11.42;100.00;98949.22;5486985;26;19994;-72
2024/04/18 03:03:02;;;;;;;5.32;1.20;;;;;;;11.14;100.00;98871.47;5486734;26;19994;-72
2024/04/18 03:05:28;;;;;;;1.52;1.00;;;;;;;11.60;100.00;98947.63;5487357;26;20006;-72
2024/04/18 03:07:57;;;;;;;2.72;1.10;;;;;;;11.47;100.00;98938.94;5487459;26;20013;-71
2024/04/18 03:10:24;;;;;;;2.40;1.08;;;;;;;11.54;100.00;98934.66;5486647;26;19998;-73
2024/04/18 03:12:54;;;;;;;1.23;1.00;;;;;;;11.62;100.00;98938.19;5486926;26;20016;-72
2024/04/18 03:15:20;;;;;;;3.15;1.00;;;;;;;11.84;100.00;98953.84;5485507;26;20018;-73
2024/04/18 03:17:45;;;;;;;2.92;1.10;;;;;;;11.87;100.00;98933.22;5487201;26;20691;-76
2024/04/18 03:20:11;;;;;;;1.92;0.93;;;;;;;11.80;100.00;98911.59;5486804;26;20051;-73
2024/04/18 03:22:40;;;;;;;2.40;1.17;;;;;;;11.85;100.00;98940.06;5487066;26;20001;-73
2024/04/18 03:25:06;;;;;;;2.80;1.27;;;;;;;11.65;100.00;98945.94;5486383;26;20002;-78
2024/04/18 03:27:32;;;;;;;2.75;1.05;;;;;;;11.55;100.00;98957.09;5453731;26;20016;-78
2024/04/18 03:29:57;;;;;;;2.83;1.10;;;;;;;11.51;100.00;98973.41;5485832;26;20030;-71
2024/04/18 03:32:23;;;;;;;1.92;1.08;;;;;;;11.52;100.00;98963.09;5484958;26;20460;-73
2024/04/18 03:34:52;;;;;;;3.80;1.48;;;;;;;11.41;100.00;98916.47;5483853;26;20750;-73
2024/04/18 03:37:17;;;;;;;2.70;1.13;;;;;;;11.71;100.00;98979.59;5486587;26;20345;-75
2024/04/18 03:39:43;;;;;;;1.70;0.90;;;;;;;11.74;100.00;98968.44;5487033;26;20013;-77
2024/04/18 03:42:08;;;;;;;3.42;1.20;;;;;;;11.67;100.00;98940.81;5486463;26;20421;-75
2024/04/18 03:44:34;;;;;;;2.72;1.20;;;;;;;11.81;100.00;98965.94;5486464;26;20048;-71
2024/04/18 03:47:00;;;;;;;4.72;1.40;;;;;;;11.30;100.00;98895.72;5487022;26;20012;-73
2024/04/18 03:49:28;;;;;;;2.58;1.13;;;;;;;11.78;100.00;98965.88;5486182;26;19998;-74
2024/04/18 03:51:53;;;;;;;2.75;1.10;;;;;;;11.75;100.00;98940.03;5486882;26;20082;-72
2024/04/18 03:54:20;;;;;;;2.15;1.45;;;;;;;11.87;100.00;98959.06;5486019;26;20314;-73
2024/04/18 03:56:45;;;;;;;1.42;1.20;;;;;;;11.98;100.00;98966.06;5486511;26;20445;-75
2024/04/18 03:59:11;;;;;;;1.40;1.13;;;;;;;12.04;100.00;98964.41;5485552;26;20002;-75
2024/04/18 04:01:36;;;;;;;2.58;1.40;;;;;;;12.07;100.00;98967.00;5486215;26;20012;-75
2024/04/18 04:04:03;;;;;;;1.85;1.10;;;;;;;12.06;100.00;98979.06;5485701;26;20565;-77
2024/04/18 04:06:29;;;;;;;1.40;1.30;;;;;;;11.93;100.00;98979.78;5485943;26;20509;-72
2024/04/18 04:08:54;;;;;;;2.55;1.30;;;;;;;11.81;100.00;98965.94;5485493;26;20006;-72
2024/04/18 04:11:20;;;;;;;1.50;1.00;;;;;;;11.71;100.00;98969.28;5485753;26;20002;-72
2024/04/18 04:13:46;;;;;;;2.35;1.05;;;;;;;11.63;100.00;98978.69;5480866;26;19994;-72
2024/04/18 04:16:11;;;;;;;0.75;0.73;;;;;;;11.55;100.00;98972.59;5486575;26;20082;-73
2024/04/18 04:18:36;;;;;;;1.08;0.70;;;;;;;11.30;100.00;98962.03;5475745;26;20018;-73
2024/04/18 04:21:04;;;;;;;1.02;0.93;;;;;;;11.16;100.00;98974.81;5473434;26;20014;-77
2024/04/18 04:23:29;;;;;;;2.75;0.73;;;;;;;11.10;100.00;98996.28;5474212;26;20002;-73
2024/04/18 04:25:55;;;;;;;3.17;0.82;;;;;;;10.98;100.00;98988.41;5486123;26;20009;-75
2024/04/18 04:28:20;;;;;;;1.50;0.80;;;;;;;10.88;100.00;99004.59;5489239;26;20343;-73
2024/04/18 04:30:46;;;;;;;1.77;0.90;;;;;;;10.77;100.00;99002.78;5486895;26;20001;-71
2024/04/18 04:33:11;;;;;;;1.33;0.90;;;;;;;10.62;100.00;98971.63;5488335;26;19998;-73
2024/04/18 04:35:38;;;;;;;2.42;1.05;;;;;;;10.84;100.00;99011.44;5489018;26;20133;-73
2024/04/18 04:38:03;;;;;;;2.05;1.30;;;;;;;10.82;100.00;99019.19;5449382;26;19998;-77
2024/04/18 04:40:29;;;;;;;2.05;1.20;;;;;;;10.66;100.00;99018.09;5447984;26;20023;-73
2024/04/18 04:42:55;;;;;;;2.40;1.48;;;;;;;10.56;100.00;99031.75;5382451;26;20006;-70
2024/04/18 04:45:22;;;;;;;2.03;1.50;;;;;;;10.42;100.00;99028.97;5449567;26;19999;-73
2024/04/18 04:47:50;;;;;;;2.00;1.60;;;;;;;10.50;100.00;99037.72;5449738;26;19995;-71
2024/04/18 04:50:15;;;;;;;3.03;1.80;;;;;;;10.17;100.00;99002.78;5415080;26;20002;-72
2024/04/18 04:52:41;;;;;;;3.13;1.88;;;;;;;10.41;100.00;99050.47;5412007;26;20038;-73
2024/04/18 04:55:07;;;;;;;2.72;1.77;;;;;;;10.35;100.00;99033.16;5447268;26;19999;-71
2024/04/18 04:57:32;;;;;;;3.88;2.28;;;;;;;10.62;100.00;99067.09;5448640;26;19999;-71
2024/04/18 04:59:58;;;;;;;3.03;2.17;;;;;;;10.75;100.00;99070.72;5448595;26;20007;-74
2024/04/18 05:02:23;;;;;;;3.75;2.45;;;;;;;10.51;100.00;99023.09;5444778;26;20010;-72
2024/04/18 05:04:50;;;;;;;3.63;2.47;;;;;;;10.59;100.00;99080.84;5449409;26;20003;-71
2024/04/18 05:07:15;;;;;;;5.63;2.40;;;;;;;10.59;100.00;99067.94;5450058;26;20461;-72
2024/04/18 05:09:41;;;;;;;3.08;1.92;;;;;;;10.57;100.00;99055.84;5424666;26;19999;-73
2024/04/18 05:12:06;;;;;;;3.45;2.10;;;;;;;10.79;100.00;99087.97;5438310;26;20000;-70
2024/04/18 05:14:32;;;;;;;2.58;1.95;;;;;;;10.65;100.00;99103.28;5447339;26;20440;-75
2024/04/18 05:16:58;;;;;;;2.80;1.90;;;;;;;10.42;100.00;99093.47;5449499;26;20002;-71
2024/04/18 05:19:23;;;;;;;3.85;1.90;;;;;;;10.31;100.00;99046.84;5449844;26;19999;-72
2024/04/18 05:21:49;;;;;;;3.70;2.00;;;;;;;10.77;100.00;99100.00;5466949;26;20013;-74
2024/04/18 05:24:15;;;;;;;4.30;2.15;;;;;;;10.64;100.00;99074.03;5488880;26;19990;-73
2024/04/18 05:26:40;;;;;;;3.15;2.20;;;;;;;10.94;100.00;99100.22;5479013;26;20311;-71
2024/04/18 05:31:50;;;;;;;3.30;2.55;;;;;;;11.10;100.00;99097.00;5448020;26;20447;-71
2024/04/18 05:34:17;;;;;;;3.90;2.50;;;;;;;10.90;100.00;99067.47;5478987;26;20021;-73
2024/04/18 05:36:45;;;;;;;3.65;2.15;;;;;;;11.14;100.00;99101.34;5449747;26;20008;-76
2024/04/18 05:39:10;;;;;;;2.78;2.10;;;;;;;11.21;100.00;99106.59;5480838;26;19990;-72
2024/04/18 05:41:37;;;;;;;4.65;2.25;;;;;;;11.23;100.00;99094.59;5484994;26;20476;-73
2024/04/18 05:44:03;;;;;;;3.17;2.10;;;;;;;11.38;100.00;99110.25;5482345;26;19997;-71
2024/04/18 05:46:28;;;;;;;3.25;2.10;;;;;;;11.46;100.00;99113.81;5486858;26;19998;-71
2024/04/18 05:48:53;;;;;;;3.45;2.08;;;;;;;11.56;100.00;99122.50;5485413;26;20017;-71
2024/04/18 05:51:19;;;;;;;2.78;1.95;;;;;;;11.21;100.00;99138.47;5488023;26;20005;-73
2024/04/18 05:53:45;;;;;;;2.65;1.88;;;;;;;11.22;100.00;99121.25;5487772;26;20074;-72
2024/04/18 05:56:10;;;;;;;3.80;2.05;;;;;;;11.35;100.00;99135.19;5488956;26;19994;-70
2024/04/18 05:58:37;;;;;;;3.90;2.65;;;;;;;11.37;100.00;99118.00;5488205;26;20465;-71
2024/04/18 06:01:04;;;;;;;4.75;2.50;;;;;;;11.52;100.00;99131.09;5468268;26;20504;-74
2024/04/18 06:03:29;;;;;;;3.58;1.90;;;;;;;11.53;100.00;99144.88;5452008;26;20479;-74
2024/04/18 06:05:56;;;;;;;3.30;2.20;;;;;;;11.69;100.00;99133.88;5452238;26;19999;-74
2024/04/18 06:08:22;;;;;;;3.97;2.78;;;;;;;11.84;100.00;99137.44;5452016;26;20003;-71
2024/04/18 06:10:48;;;;;;;4.47;2.35;;;;;;;11.87;100.00;99125.41;5452006;26;20424;-70
2024/04/18 06:13:14;;;;;;;4.05;2.17;;;;;;;11.91;100.00;99119.44;5451792;26;20002;-70
2024/04/18 06:15:43;;;;;;;3.72;2.47;;;;;;;12.02;100.00;99139.41;5450461;26;20061;-71
2024/04/18 06:18:09;;;;;;;3.63;2.08;;;;;;;11.92;100.00;99136.66;5452204;26;20013;-73
2024/04/18 06:20:51;;;;;;;3.50;2.40;;;;;;;11.77;100.00;99126.19;5452328;26;20002;-74
2024/04/18 06:23:17;;;;;;;3.70;2.10;;;;;;;11.52;100.00;99068.19;5446470;26;20010;-70
2024/04/18 06:25:43;;;;;;;3.53;2.20;;;;;;;11.99;100.00;99135.06;5452249;26;20003;-74
2024/04/18 06:28:12;;;;;;;2.97;1.98;;;;;;;12.26;100.00;99151.69;5451864;26;19998;-71
2024/04/18 06:30:39;;;;;;;4.22;2.10;;;;;;;12.20;100.00;99118.88;5438705;26;19992;-74
2024/04/18 06:33:05;;;;;;;3.03;2.03;;;;;;;12.32;100.00;99114.66;5440878;26;20003;-72
2024/04/18 06:35:30;;;;;;;2.67;2.10;;;;;;;12.81;100.00;99163.31;5444388;26;20426;-75
2024/04/18 06:37:56;;;;;;;3.28;2.08;;;;;;;12.93;100.00;99163.41;5451693;26;20007;-70
2024/04/18 06:40:23;;;;;;;2.80;2.15;;;;;;;12.46;100.00;99121.66;5451677;26;19998;-73
2024/04/18 06:42:50;;;;;;;4.55;1.92;;;;;;;12.74;100.00;99178.81;5451967;26;20433;-70
2024/04/18 06:45:15;;;;;;;3.25;2.30;;;;;;;12.77;100.00;99180.56;5451636;26;20010;-70
2024/04/18 06:47:41;;;;;;;3.13;2.13;;;;;;;12.66;100.00;99190.84;5451644;26;20010;-69
2024/04/18 06:50:06;;;;;;;2.83;2.05;;;;;;;12.71;100.00;99194.34;5450915;26;20002;-72
2024/04/18 06:52:32;;;;;;;2.63;1.95;;;;;;;12.74;100.00;99194.34;5451705;26;20370;-74
2024/04/18 06:54:58;;;;;;;2.25;1.60;;;;;;;12.63;100.00;99149.38;5449445;26;20344;-69
2024/04/18 06:57:25;;;;;;;5.45;2.17;;;;;;;12.98;100.00;99185.03;5450966;26;20009;-69
2024/04/18 06:59:52;;;;;;;2.35;1.70;;;;;;;12.82;100.00;99142.59;5419091;26;19995;-74
2024/04/18 07:02:17;;;;;;;2.22;1.65;;;;;;;13.07;100.00;99187.69;5451252;26;20325;-71
2024/04/18 07:04:45;;;;;;;3.92;2.03;;;;;;;13.04;100.00;99185.06;5451276;26;19991;-69
2024/04/18 07:07:11;;;;;;;5.07;1.75;;;;;;;13.10;100.00;99187.69;5451023;26;19998;-69
2024/04/18 07:09:37;;;;;;;4.63;2.00;;;;;;;13.16;100.00;99198.94;5451166;26;19999;-69
2024/04/18 07:12:03;;;;;;;2.10;1.60;;;;;;;13.00;100.00;99159.16;5450616;26;19998;-71
2024/04/18 07:14:29;;;;;;;4.25;2.03;;;;;;;13.23;100.00;99192.94;5418798;26;20079;-75
2024/04/18 07:16:55;;;;;;;4.30;1.90;;;;;;;13.38;100.00;99208.63;5450848;26;20383;-69
2024/04/18 07:19:20;;;;;;;3.60;2.10;;;;;;;13.52;100.00;99205.22;5451201;26;20006;-73
2024/04/18 07:21:46;;;;;;;3.25;2.20;;;;;;;13.55;100.00;99226.00;5451094;26;20352;-72
2024/04/18 07:24:11;;;;;;;3.50;2.08;;;;;;;13.56;100.00;99225.13;5451296;26;20005;-71
2024/04/18 07:26:37;;;;;;;5.03;2.00;;;;;;;13.51;100.00;99216.47;5451046;26;19995;-72
2024/04/18 07:29:03;;;;;;;3.05;1.80;;;;;;;13.21;100.00;99220.59;5451292;26;19994;-73
2024/04/18 07:31:29;;;;;;;2.95;1.98;;;;;;;12.84;100.00;99221.19;5450712;26;20394;-75
2024/04/18 07:33:55;;;;;;;3.40;2.03;;;;;;;12.60;100.00;99225.31;5450745;26;20524;-75
2024/04/18 07:36:21;;;;;;;3.72;2.17;;;;;;;12.53;100.00;99230.44;5450863;26;20068;-70
2024/04/18 07:38:48;;;;;;;2.55;1.73;;;;;;;12.62;100.00;99235.69;5451031;26;20003;-74
2024/04/18 07:41:19;;;;;;;3.10;2.00;;;;;;;12.52;100.00;99213.16;5451048;26;20031;-73
2024/04/18 07:43:45;;;;;;;3.35;2.05;;;;;;;12.70;100.00;99238.38;5450703;26;19999;-70
2024/04/18 07:46:12;;;;;;;4.63;2.17;;;;;;;12.53;100.00;99220.94;5450445;26;20338;-70
2024/04/18 07:48:39;;;;;;;3.45;2.40;;;;;;;12.21;100.00;99189.59;5450605;26;20003;-69
2024/04/18 07:51:04;;;;;;;5.25;2.72;;;;;;;12.39;100.00;99231.16;5450484;26;20002;-72
2024/04/18 07:53:30;;;;;;;3.95;2.10;;;;;;;12.54;100.00;99227.84;5450639;26;20437;-71
2024/04/18 07:55:55;;;;;;;4.03;2.33;;;;;;;12.43;100.00;99183.75;5417599;26;20035;-70
2024/04/18 07:58:21;;;;;;;3.45;2.20;;;;;;;12.65;100.00;99221.88;5450567;26;20714;-73
2024/04/18 08:00:50;;;;;;;5.57;2.45;;;;;;;12.65;100.00;99220.19;5448830;26;20391;-71
2024/04/18 08:03:16;;;;;;;2.65;2.10;;;;;;;12.61;100.00;99233.94;5450350;26;20011;-76
2024/04/18 08:05:42;;;;;;;3.55;2.00;;;;;;;12.70;100.00;99223.69;5450040;26;20023;-69
2024/04/18 08:08:07;;;;;;;3.30;2.35;;;;;;;12.96;100.00;99238.56;5450611;26;20090;-73
2024/04/18 08:10:33;;;;;;;3.10;2.20;;;;;;;13.03;100.00;99232.53;5450194;26;20002;-75
2024/04/18 08:12:58;;;;;;;5.55;2.78;;;;;;;13.13;100.00;99240.41;5450171;26;19995;-70
2024/04/18 08:15:24;;;;;;;4.68;2.78;;;;;;;13.13;100.00;99248.16;5450067;26;20003;-74
2024/04/18 08:17:49;;;;;;;3.70;2.42;;;;;;;12.89;100.00;99245.41;5450070;26;20441;-70
2024/04/18 08:20:15;;;;;;;5.38;2.65;;;;;;;12.90;100.00;99238.50;5449993;26;20003;-70
2024/04/18 08:22:40;;;;;;;4.55;2.55;;;;;;;13.07;100.00;99256.75;5450285;26;20355;-71
2024/04/18 08:25:06;;;;;;;4.55;2.60;;;;;;;13.02;100.00;99261.03;5447473;26;20092;-73
2024/04/18 08:27:32;;;;;;;3.55;2.40;;;;;;;12.71;100.00;99259.09;5424759;26;20003;-76
2024/04/18 08:29:58;;;;;;;4.30;2.60;;;;;;;12.93;100.00;99262.72;5424265;26;20014;-74
2024/04/18 08:32:23;;;;;;;3.63;2.15;;;;;;;12.86;100.00;99249.69;5449723;26;20010;-73
2024/04/18 08:34:49;;;;;;;4.40;2.13;;;;;;;13.01;100.00;99247.22;5450466;26;20005;-71
2024/04/18 08:37:14;;;;;;;4.15;2.20;;;;;;;13.20;100.00;99248.22;5450472;26;20009;-71
2024/04/18 08:39:39;;;;;;;2.80;2.10;;;;;;;13.39;100.00;99232.81;5450406;26;19995;-71
2024/04/18 08:42:10;;;;;;;4.03;2.55;;;;;;;13.42;100.00;99251.84;5450396;26;20366;-76
2024/04/18 08:44:36;;;;;;;3.17;2.25;;;;;;;13.51;100.00;99284.72;5449109;26;20063;-74
2024/04/18 08:47:02;;;;;;;3.33;2.03;;;;;;;13.34;100.00;99231.88;5414327;26;19987;-71
2024/04/18 08:49:29;;;;;;;4.90;2.28;;;;;;;13.56;100.00;99280.44;5412617;26;19996;-72
2024/04/18 08:51:55;;;;;;;3.70;2.13;;;;;;;13.23;100.00;99245.66;5414037;26;19999;-76
2024/04/18 08:54:21;;;;;;;2.42;1.80;;;;;;;13.66;100.00;99286.56;5414058;26;20000;-70
2024/04/18 08:56:50;;;;;;;2.85;1.92;;;;;;;13.38;100.00;99296.75;5381861;26;19992;-74
2024/04/18 08:59:18;;;;;;;3.45;1.90;;;;;;;13.15;100.00;99291.38;5413991;26;20004;-75
2024/04/18 09:01:46;;;;;;;3.25;2.00;;;;;;;13.39;100.00;99289.84;5414070;26;20000;-71
2024/04/18 09:04:11;;;;;;;3.90;2.15;;;;;;;13.69;100.00;99307.28;5413853;26;20003;-71
2024/04/18 09:06:37;;;;;;;2.83;2.00;;;;;;;13.70;100.00;99298.66;5414131;26;20016;-71
2024/04/18 09:09:08;;;;;;;3.92;2.00;;;;;;;13.88;100.00;99276.25;5381426;26;20007;-71
2024/04/18 09:11:34;;;;;;;2.90;1.70;;;;;;;14.11;100.00;99293.66;5415204;26;19999;-70
2024/04/18 09:14:00;;;;;;;4.97;2.10;;;;;;;14.23;100.00;99304.06;5436789;26;19998;-73
2024/04/18 09:16:27;;;;;;;3.10;1.85;;;;;;;14.06;100.00;99311.81;5423113;26;20000;-72
2024/04/18 09:18:53;;;;;;;3.03;1.92;;;;;;;13.80;100.00;99312.56;5443699;26;20003;-70
2024/04/18 09:21:20;;;;;;;2.97;1.88;;;;;;;13.62;100.00;99323.72;5417444;26;20408;-70
2024/04/18 09:23:46;;;;;;;3.13;2.15;;;;;;;13.59;100.00;99310.72;5417452;26;20006;-71
2024/04/18 09:26:13;;;;;;;4.18;2.25;;;;;;;13.38;100.00;99325.28;5417402;26;19995;-70
2024/04/18 09:28:38;;;;;;;3.60;2.50;;;;;;;13.23;100.00;99326.00;5417449;26;19996;-72
2024/04/18 09:31:04;;;;;;;3.60;2.53;;;;;;;12.77;100.00;99277.25;5417146;26;20446;-72
2024/04/18 09:33:33;;;;;;;4.72;2.47;;;;;;;12.80;100.00;99289.38;5417564;26;20335;-73
2024/04/18 09:36:00;;;;;;;4.40;2.47;;;;;;;13.05;100.00;99333.63;5417317;26;19995;-71
2024/04/18 09:38:30;;;;;;;4.05;2.60;;;;;;;13.10;100.00;99350.06;5426813;26;19995;-70
2024/04/18 09:41:02;;;;;;;;;;;;;;;13.25;100.00;99339.81;5434297;26;20000;-70
2024/04/18 09:43:58;;;;;;;4.15;2.65;;;;;;;13.20;100.00;99343.25;5445818;26;19993;-72
2024/04/18 09:46:25;;;;;;;4.28;2.10;;;;;;;12.87;100.00;99323.94;5452493;26;20021;-71
2024/04/18 09:48:53;;;;;;;3.08;2.03;;;;;;;12.92;100.00;99289.47;5451543;26;20048;-74
2024/04/18 09:51:20;;;;;;;3.83;2.20;;;;;;;13.02;100.00;99343.94;5452463;26;19998;-74
2024/04/18 09:53:46;;;;;;;3.63;2.90;;;;;;;12.96;100.00;99339.59;5436895;26;20006;-76
2024/04/18 09:56:13;;;;;;;4.40;2.80;;;;;;;12.93;100.00;99342.16;5450192;26;20003;-74
2024/04/18 09:58:40;;;;;;;5.65;3.10;;;;;;;12.56;100.00;99310.72;5437688;26;20656;-70
2024/04/18 10:01:06;;;;;;;5.00;3.03;;;;;;;12.48;100.00;99314.97;5440323;26;20329;-71
2024/04/18 10:03:31;;;;;;;5.38;3.53;;;;;;;12.63;100.00;99320.28;5426720;26;20014;-75
2024/04/18 10:06:05;;;;;;;5.00;3.50;;;;;;;12.44;100.00;99327.00;5443735;26;20445;-72
2024/04/18 10:08:35;;;;;;;5.45;4.03;;;;;;;12.56;100.00;99332.31;5448816;26;20314;-74
2024/04/18 10:11:02;;;;;;;5.15;3.53;;;;;;;12.29;100.00;99338.91;5452370;26;20466;-70
2024/04/18 10:13:28;;;;;;;7.63;3.47;;;;;;;12.09;100.00;99324.88;5447095;26;19999;-72
2024/04/18 10:16:10;;;;;;;5.43;3.42;;;;;;;11.95;100.00;99333.28;5443729;26;20122;-70
2024/04/18 10:18:37;;;;;;;7.15;3.58;;;;;;;11.81;100.00;99327.03;5451928;26;20011;-71
2024/04/18 10:21:21;;;;;;;7.45;4.28;;;;;;;11.85;100.00;99346.06;5438746;26;20449;-75
2024/04/18 10:23:57;;;;;;;7.38;3.95;;;;;;;11.63;100.00;99338.88;5463340;26;19999;-75
2024/04/18 10:26:22;;;;;;;5.72;3.53;;;;;;;11.62;100.00;99344.03;5450837;26;20345;-76
2024/04/18 10:28:50;;;;;;;7.18;4.40;;;;;;;11.74;100.00;99336.44;5452131;26;20015;-73
2024/04/18 10:31:17;;;;;;;7.85;4.20;;;;;;;11.60;100.00;99296.59;5452122;26;20478;-69
2024/04/18 10:33:43;;;;;;;7.35;4.18;;;;;;;11.84;100.00;99288.31;5451879;26;20002;-72
2024/04/18 10:36:13;;;;;;;6.60;4.32;;;;;;;12.21;100.00;99326.72;5452111;26;20043;-70
2024/04/18 10:38:46;;;;;;;6.75;4.05;;;;;;;12.34;100.00;99331.19;5452131;26;20073;-72
2024/04/18 10:41:22;;;;;;;8.23;5.18;;;;;;;12.49;100.00;99337.41;5443954;26;20010;-74
2024/04/18 10:43:48;;;;;;;6.28;3.80;;;;;;;12.48;100.00;99315.81;5437861;26;20414;-75
2024/04/18 10:46:13;;;;;;;5.53;3.50;;;;;;;12.41;100.00;99314.00;5451702;26;20030;-71
2024/04/18 10:48:40;;;;;;;7.28;4.15;;;;;;;12.64;100.00;99321.16;5413324;26;20003;-71
2024/04/18 10:51:06;;;;;;;7.60;4.03;;;;;;;12.66;100.00;99322.03;5450832;26;19994;-75
2024/04/18 10:53:38;;;;;;;6.30;3.78;;;;;;;12.75;100.00;99335.94;5451790;26;20009;-75
2024/04/18 10:56:04;;;;;;;6.25;3.90;;;;;;;12.88;100.00;99343.81;5451834;26;20322;-72
2024/04/18 10:58:30;;;;;;;7.78;3.97;;;;;;;12.69;100.00;99341.06;5451334;26;19998;-75
2024/04/18 11:01:00;;;;;;;6.32;3.58;;;;;;;12.75;100.00;99342.84;5450008;26;20498;-76
2024/04/18 11:03:29;;;;;;;6.07;3.50;;;;;;;12.36;100.00;99293.28;5451067;26;20159;-73
2024/04/18 11:06:02;;;;;;;5.27;3.77;;;;;;;12.67;100.00;99342.75;5451619;26;20003;-74
2024/04/18 11:08:28;;;;;;;6.45;3.78;;;;;;;12.46;100.00;99318.38;5451142;26;20236;-77
2024/04/18 11:10:54;;;;;;;6.70;3.95;;;;;;;12.58;100.00;99330.56;5451631;26;20367;-75
2024/04/18 11:13:19;;;;;;;6.50;3.95;;;;;;;12.56;100.00;99314.19;5451002;26;19998;-70
2024/04/18 11:15:47;;;;;;;5.53;4.22;;;;;;;12.55;100.00;99316.75;5451477;26;19998;-75
2024/04/18 11:18:12;;;;;;;6.63;4.47;;;;;;;12.45;100.00;99285.59;5451288;26;20331;-78
2024/04/18 11:20:38;;;;;;;6.30;4.30;;;;;;;12.78;100.00;99329.91;5449790;26;20013;-78
2024/04/18 11:23:05;;;;;;;5.63;4.00;;;;;;;12.92;100.00;99335.22;5450960;26;20452;-73